»·PEaware :: N716TH KSBP-KSMX

N716TH :: KSBP-KSMX

FLIGHT INFORMATION

Flight Status: Arrived
Operator: Privately registered:
United States
More flights under this callsign
Pilot: Danny R. (17997)
Aircraft: CESSNA 172 SKYHAWK
(C172)
More flights by this aircraft type
Origin: KSBP San Luis Co Regl
United States
Destination: KSMX Santa Maria Pub/Capt Hancock
United States
More flights between these airports :: More routes between these airports
Route:
File this flight plan on PilotEdge
Remarks: CAT4
Altitude:
(Current/Filed)
3,000ft
Speed:
(Current/Filed)
100kts
Departed: 05-Feb-18 12:44 PM
Arrived: 05-Feb-18 01:11 PM
Distance/Time
Traveled:
23nm/0:27
Distance/Time
To Go:
Arrived

Flight Plot

Page will automatically refresh every two minutes.


Map Options




Map Legend


Flown Route
Filed Route
Departure Airport
Arrival Airport
Navaid (VOR, NDB)
Fix

Horizontal Profiles

Position Reports

Time Latitude Longitude Heading Altitude Ground
Speed
05-Feb-18 12:21 35.238516 -120.638504 262 215ft 0kts
05-Feb-18 12:22 35.238516 -120.638504 262 215ft 0kts
05-Feb-18 12:23 35.238516 -120.638504 262 215ft 0kts
05-Feb-18 12:24 35.238516 -120.638504 262 215ft 0kts
05-Feb-18 12:25 35.238516 -120.638504 262 215ft 0kts
05-Feb-18 12:26 35.238516 -120.638504 262 215ft 0kts
05-Feb-18 12:27 35.238516 -120.638504 262 215ft 0kts
05-Feb-18 12:28 35.238516 -120.638504 262 215ft 0kts
05-Feb-18 12:28 35.238516 -120.638504 262 215ft 0kts
05-Feb-18 12:30 35.238516 -120.638504 262 215ft 0kts
05-Feb-18 12:31 35.238516 -120.638504 262 215ft 0kts
05-Feb-18 12:31 35.238516 -120.638504 262 215ft 0kts
05-Feb-18 12:33 35.238516 -120.638504 262 215ft 0kts
05-Feb-18 12:34 35.238516 -120.638504 262 215ft 0kts
05-Feb-18 12:34 35.238516 -120.638504 262 215ft 0kts
05-Feb-18 12:35 35.238516 -120.638504 262 215ft 0kts
05-Feb-18 12:36 35.238516 -120.638504 262 215ft 0kts
05-Feb-18 12:38 35.238516 -120.638504 262 215ft 0kts
05-Feb-18 12:38 35.238516 -120.638504 262 215ft 0kts
05-Feb-18 12:39 35.238516 -120.638504 262 215ft 0kts
05-Feb-18 12:40 35.238516 -120.638504 262 215ft 0kts
05-Feb-18 12:41 35.238516 -120.638504 262 215ft 0kts
05-Feb-18 12:42 35.238516 -120.638504 262 215ft 0kts
05-Feb-18 12:43 35.237826 -120.638702 174 215ft 3kts
05-Feb-18 12:44 35.235231 -120.635184 128 215ft 21kts
05-Feb-18 12:45 35.233252 -120.631927 252 215ft 0kts
05-Feb-18 12:46 35.233252 -120.631927 252 215ft 0kts
05-Feb-18 12:47 35.233252 -120.631927 252 215ft 0kts
05-Feb-18 12:48 35.233254 -120.632255 215 215ft 0kts
05-Feb-18 12:49 35.233254 -120.632255 216 215ft 0kts
05-Feb-18 12:50 35.236953 -120.639837 304 414ft 63kts
05-Feb-18 12:51 35.243801 -120.660450 227 1166ft 82kts
05-Feb-18 12:52 35.221039 -120.661525 126 1288ft 110kts
05-Feb-18 12:53 35.203991 -120.629612 124 1354ft 106kts
05-Feb-18 12:54 35.189405 -120.600851 123 2096ft 88kts
05-Feb-18 12:55 35.176222 -120.575670 120 2853ft 94kts
05-Feb-18 12:56 35.162107 -120.547935 127 3070ft 94kts
05-Feb-18 12:57 35.139532 -120.549822 230 3069ft 86kts
05-Feb-18 12:58 35.124010 -120.572052 233 3086ft 87kts
05-Feb-18 12:59 35.108262 -120.594578 233 3097ft 87kts
05-Feb-18 13:00 35.092473 -120.617002 226 3113ft 87kts
05-Feb-18 13:01 35.068015 -120.622932 184 3164ft 92kts
05-Feb-18 13:02 35.042148 -120.623439 191 3177ft 92kts
05-Feb-18 13:03 35.016428 -120.623937 179 3156ft 94kts
05-Feb-18 13:04 34.991146 -120.620667 179 3132ft 88kts
05-Feb-18 13:05 34.966800 -120.618164 177 3108ft 88kts
05-Feb-18 13:06 34.942670 -120.617168 184 3099ft 86kts
05-Feb-18 13:07 34.921351 -120.601631 134 2859ft 94kts
05-Feb-18 13:08 34.905176 -120.578574 128 2378ft 87kts
05-Feb-18 13:09 34.898938 -120.551101 80 2069ft 93kts
05-Feb-18 13:10 34.905720 -120.520048 72 1720ft 93kts
05-Feb-18 13:11 34.901053 -120.492142 138 1259ft 74kts
05-Feb-18 13:12 34.886434 -120.476343 132 1213ft 72kts
05-Feb-18 13:13 34.873640 -120.456623 128 1256ft 77kts
05-Feb-18 13:14 34.868863 -120.434641 43 1118ft 77kts
05-Feb-18 13:15 34.882321 -120.432660 307 683ft 58kts
05-Feb-18 13:16 34.893281 -120.446349 310 265ft 43kts
05-Feb-18 13:17 34.897695 -120.449998 0 265ft 0kts
05-Feb-18 13:18 34.897909 -120.449997 0 265ft 2kts
05-Feb-18 13:19 34.896572 -120.447439 56 265ft 10kts
05-Feb-18 13:20 34.896431 -120.445521 126 265ft 7kts
05-Feb-18 13:21 34.896124 -120.445146 136 265ft 0kts
05-Feb-18 13:22 34.896124 -120.445146 136 265ft 0kts
05-Feb-18 13:23 34.896124 -120.445146 136 265ft 0kts
05-Feb-18 13:24 34.896124 -120.445146 136 265ft 0kts
05-Feb-18 13:25 34.896124 -120.445146 136 265ft 0kts
05-Feb-18 13:26 34.896124 -120.445146 136 265ft 0kts
05-Feb-18 13:27 34.896124 -120.445146 136 265ft 0kts
05-Feb-18 13:28 34.896124 -120.445146 136 265ft 0kts
05-Feb-18 13:29 34.896124 -120.445146 136 265ft 0kts
05-Feb-18 13:30 34.896124 -120.445146 136 265ft 0kts
05-Feb-18 13:31 34.896124 -120.445146 136 265ft 0kts

Navigation Log

Ident Type
1. KSBP Airport
2. KSMX Airport